createdAt,value
2023-03-27T00:00:20.654Z,85.89
2023-03-27T00:01:20.720Z,86.10
2023-03-27T00:02:20.676Z,86.21
2023-03-27T00:03:20.672Z,86.21
2023-03-27T00:04:20.558Z,86.55
2023-03-27T00:05:20.491Z,86.41
2023-03-27T00:06:20.526Z,87.04
2023-03-27T00:07:20.410Z,87.18
2023-03-27T00:08:20.370Z,87.18
2023-03-27T00:09:20.354Z,87.28
2023-03-27T00:10:20.303Z,86.97
2023-03-27T00:11:20.270Z,86.66
2023-03-27T00:12:20.271Z,87.80
2023-03-27T00:13:20.187Z,87.70
2023-03-27T00:14:20.153Z,87.07
2023-03-27T00:15:20.107Z,86.97
2023-03-27T00:16:20.237Z,87.18
2023-03-27T00:17:20.045Z,87.80
2023-03-27T00:18:20.056Z,87.12
2023-03-27T00:19:19.999Z,87.18
2023-03-27T00:20:19.929Z,87.74
2023-03-27T00:21:19.890Z,87.28
2023-03-27T00:22:19.858Z,87.22
2023-03-27T00:23:19.805Z,87.63
2023-03-27T00:24:19.837Z,87.43
2023-03-27T00:25:19.734Z,87.63
2023-03-27T00:26:19.701Z,87.84
2023-03-27T00:27:19.664Z,87.84
2023-03-27T00:28:19.644Z,87.32
2023-03-27T00:29:19.610Z,87.43
2023-03-27T00:30:19.632Z,87.63
2023-03-27T00:31:19.566Z,87.95
2023-03-27T00:32:19.482Z,87.53
2023-03-27T00:33:19.451Z,88.15
2023-03-27T00:34:19.413Z,88.15
2023-03-27T00:35:19.414Z,87.84
2023-03-27T00:36:19.387Z,87.84
2023-03-27T00:37:19.304Z,87.22
2023-03-27T00:38:19.266Z,87.12
2023-03-27T00:39:19.260Z,87.43
2023-03-27T00:40:19.182Z,87.47
2023-03-27T00:41:19.163Z,87.43
2023-03-27T00:42:19.191Z,87.84
2023-03-27T00:43:19.099Z,88.15
2023-03-27T00:44:19.065Z,88.05
2023-03-27T00:45:19.009Z,87.99
2023-03-27T00:46:19.015Z,87.84
2023-03-27T00:47:18.945Z,88.20
2023-03-27T00:48:18.997Z,88.09
2023-03-27T00:49:18.963Z,87.88
2023-03-27T00:50:18.814Z,87.88
2023-03-27T00:51:18.792Z,87.84
2023-03-27T00:52:18.732Z,88.15
2023-03-27T00:53:18.706Z,87.78
2023-03-27T00:54:18.721Z,88.09
2023-03-27T00:55:18.619Z,88.15
2023-03-27T00:56:18.594Z,88.20
2023-03-27T00:57:18.562Z,87.88
2023-03-27T00:58:18.528Z,87.99
2023-03-27T00:59:18.549Z,88.20
2023-03-27T01:00:18.459Z,87.99
2023-03-27T01:01:18.493Z,88.30
2023-03-27T01:02:18.406Z,88.09
2023-03-27T01:03:18.402Z,88.61
2023-03-27T01:04:18.281Z,88.30
2023-03-27T01:05:18.336Z,88.40
2023-03-27T01:06:18.227Z,88.51
2023-03-27T01:07:18.203Z,88.51
2023-03-27T01:08:18.143Z,88.51
2023-03-27T01:09:20.714Z,88.61
2023-03-27T01:10:18.062Z,88.30
2023-03-27T01:11:18.099Z,88.20
2023-03-27T01:12:18.010Z,88.40
2023-03-27T01:13:17.960Z,88.82
2023-03-27T01:14:17.927Z,88.71
2023-03-27T01:15:17.897Z,89.13
2023-03-27T01:16:17.908Z,89.13
2023-03-27T01:17:17.909Z,89.03
2023-03-27T01:18:17.766Z,89.23
2023-03-27T01:19:17.728Z,88.75
2023-03-27T01:20:17.693Z,89.03
2023-03-27T01:21:17.664Z,89.27
2023-03-27T01:22:17.622Z,89.27
2023-03-27T01:23:35.770Z,89.65
2023-03-27T01:24:17.550Z,89.79
2023-03-27T01:25:17.509Z,89.37
2023-03-27T01:26:17.459Z,89.48
2023-03-27T01:27:17.434Z,89.89
2023-03-27T01:28:17.410Z,89.86
2023-03-27T01:29:17.411Z,89.86
2023-03-27T01:30:17.315Z,89.54
2023-03-27T01:31:17.298Z,89.44
2023-03-27T01:32:17.239Z,89.13
2023-03-27T01:33:17.228Z,89.34
2023-03-27T01:34:17.192Z,89.75
2023-03-27T01:35:17.211Z,89.23
2023-03-27T01:36:17.084Z,89.34
2023-03-27T01:37:17.307Z,90.10
2023-03-27T01:38:17.086Z,89.86
2023-03-27T01:39:16.982Z,89.75
2023-03-27T01:40:16.953Z,89.48
2023-03-27T01:41:16.896Z,89.58
2023-03-27T01:42:16.885Z,89.89
2023-03-27T01:43:16.916Z,90.41
2023-03-27T01:44:16.802Z,90.20
2023-03-27T01:45:16.757Z,90.31
2023-03-27T01:46:16.753Z,90.20
2023-03-27T01:47:16.681Z,90.10
2023-03-27T01:48:16.646Z,90.31
2023-03-27T01:49:16.660Z,90.20
2023-03-27T01:50:16.571Z,90.27
2023-03-27T01:51:16.543Z,90.31
2023-03-27T01:52:16.496Z,90.48
2023-03-27T01:53:16.450Z,90.52
2023-03-27T01:54:16.486Z,90.69
2023-03-27T01:55:16.380Z,89.86
2023-03-27T01:56:16.354Z,89.96
2023-03-27T01:57:16.374Z,89.86
2023-03-27T01:58:16.269Z,89.54
2023-03-27T01:59:16.251Z,89.65
2023-03-27T02:00:18.709Z,89.96
2023-03-27T02:01:16.221Z,89.65
2023-03-27T02:02:16.132Z,89.86
2023-03-27T02:03:16.078Z,90.69
2023-03-27T02:04:16.214Z,90.17
2023-03-27T02:05:16.053Z,90.06
2023-03-27T02:06:16.054Z,90.27
2023-03-27T02:07:15.935Z,90.48
2023-03-27T02:08:15.900Z,90.58
2023-03-27T02:09:15.922Z,90.23
2023-03-27T02:10:15.838Z,89.50
2023-03-27T02:11:15.802Z,89.34
2023-03-27T02:12:15.740Z,89.54
2023-03-27T02:13:15.731Z,90.48
2023-03-27T02:14:15.745Z,90.44
2023-03-27T02:15:23.795Z,90.23
2023-03-27T02:16:15.594Z,90.17
2023-03-27T02:17:15.579Z,90.23
2023-03-27T02:18:15.532Z,90.48
2023-03-27T02:19:15.483Z,90.48
2023-03-27T02:20:15.512Z,89.96
2023-03-27T02:21:15.416Z,89.75
2023-03-27T02:22:15.383Z,90.48
2023-03-27T02:23:15.357Z,89.54
2023-03-27T02:24:15.297Z,89.34
2023-03-27T02:25:15.270Z,89.75
2023-03-27T02:26:15.287Z,90.58
2023-03-27T02:27:15.211Z,90.27
2023-03-27T02:28:15.156Z,89.54
2023-03-27T02:29:15.112Z,89.54
2023-03-27T02:30:15.072Z,89.86
2023-03-27T02:31:34.007Z,89.34
2023-03-27T02:32:15.111Z,89.44
2023-03-27T02:33:15.059Z,89.65
2023-03-27T02:34:14.933Z,89.13
2023-03-27T02:35:14.894Z,89.03
2023-03-27T02:36:14.851Z,89.34
2023-03-27T02:37:14.816Z,88.71
2023-03-27T02:38:14.847Z,88.40
2023-03-27T02:39:14.753Z,88.61
2023-03-27T02:40:14.730Z,89.23
2023-03-27T02:41:14.709Z,88.51
2023-03-27T02:42:14.696Z,88.71
2023-03-27T02:43:14.606Z,89.03
2023-03-27T02:44:14.611Z,88.82
2023-03-27T02:45:14.515Z,88.61
2023-03-27T02:46:14.499Z,89.03
2023-03-27T02:47:14.448Z,89.65
2023-03-27T02:48:14.404Z,89.17
2023-03-27T02:49:14.397Z,88.75
2023-03-27T02:50:14.395Z,89.48
2023-03-27T02:51:14.307Z,89.48
2023-03-27T02:52:14.264Z,89.48
2023-03-27T02:53:14.217Z,89.34
2023-03-27T02:54:14.194Z,89.06
2023-03-27T02:55:14.153Z,89.03
2023-03-27T02:56:14.210Z,88.82
2023-03-27T02:57:14.120Z,88.54
2023-03-27T02:58:14.036Z,88.71
2023-03-27T02:59:14.000Z,88.61
2023-03-27T03:00:14.001Z,88.51
2023-03-27T03:01:13.985Z,88.23
2023-03-27T03:02:13.965Z,88.34
2023-03-27T03:03:13.985Z,87.88
2023-03-27T03:04:13.818Z,87.88
2023-03-27T03:05:13.788Z,87.88
2023-03-27T03:06:13.738Z,88.09
2023-03-27T03:07:13.710Z,88.02
2023-03-27T03:08:13.750Z,88.02
2023-03-27T03:09:13.625Z,88.54
2023-03-27T03:10:13.598Z,87.68
2023-03-27T03:11:13.561Z,88.34
2023-03-27T03:12:13.526Z,88.30
2023-03-27T03:13:13.488Z,88.61
2023-03-27T03:14:13.511Z,88.85
2023-03-27T03:15:13.416Z,89.17
2023-03-27T03:16:13.382Z,89.69
2023-03-27T03:17:13.330Z,90.72
2023-03-27T03:18:13.305Z,90.14
2023-03-27T03:19:13.253Z,91.08
2023-03-27T03:20:13.696Z,91.08
2023-03-27T03:21:13.182Z,91.33
2023-03-27T03:22:13.218Z,91.22
2023-03-27T03:23:13.105Z,91.33
2023-03-27T03:24:13.064Z,91.74
2023-03-27T03:25:13.025Z,91.74
2023-03-27T03:26:13.061Z,91.16
2023-03-27T03:27:12.972Z,91.12
2023-03-27T03:28:12.922Z,91.58
2023-03-27T03:29:13.052Z,91.06
2023-03-27T03:30:17.621Z,91.37
2023-03-27T03:31:12.824Z,90.91
2023-03-27T03:32:12.842Z,91.00
2023-03-27T03:33:12.793Z,91.16
2023-03-27T03:34:12.686Z,90.69
2023-03-27T03:35:12.668Z,90.37
2023-03-27T03:36:12.620Z,90.69
2023-03-27T03:37:12.581Z,89.75
2023-03-27T03:38:12.616Z,89.43
2023-03-27T03:39:12.596Z,89.54
2023-03-27T03:40:12.531Z,89.27
2023-03-27T03:41:12.436Z,89.43
2023-03-27T03:42:22.638Z,88.96
2023-03-27T03:43:12.357Z,88.43
2023-03-27T03:44:12.316Z,88.43
2023-03-27T03:45:12.280Z,88.43
2023-03-27T03:46:13.059Z,88.43
2023-03-27T03:47:12.203Z,88.12
2023-03-27T03:48:12.171Z,88.54
2023-03-27T03:49:12.124Z,87.60
2023-03-27T03:50:12.097Z,88.17
2023-03-27T03:51:12.051Z,87.85
2023-03-27T03:52:12.091Z,87.75
2023-03-27T03:53:11.972Z,87.33
2023-03-27T03:54:11.935Z,87.23
2023-03-27T03:55:11.967Z,87.02
2023-03-27T03:56:11.860Z,86.71
2023-03-27T03:57:11.845Z,87.65
2023-03-27T03:58:11.840Z,87.23
2023-03-27T03:59:11.764Z,87.54
2023-03-27T04:00:11.722Z,87.23
2023-03-27T04:01:17.596Z,86.81
2023-03-27T04:02:11.660Z,86.96
2023-03-27T04:03:11.681Z,87.58
2023-03-27T04:04:11.608Z,87.37
2023-03-27T04:05:11.522Z,87.58
2023-03-27T04:06:11.475Z,87.58
2023-03-27T04:07:11.435Z,87.48
2023-03-27T04:08:11.396Z,87.99
2023-03-27T04:09:11.362Z,87.37
2023-03-27T04:10:11.389Z,86.43
2023-03-27T04:11:11.282Z,87.48
2023-03-27T04:12:11.250Z,87.10
2023-03-27T04:13:11.288Z,87.10
2023-03-27T04:14:11.175Z,86.99
2023-03-27T04:15:11.135Z,86.89
2023-03-27T04:16:11.128Z,87.41
2023-03-27T04:17:11.061Z,87.52
2023-03-27T04:18:11.232Z,87.73
2023-03-27T04:19:11.056Z,87.83
2023-03-27T04:20:10.954Z,87.83
2023-03-27T04:21:10.915Z,87.83
2023-03-27T04:22:10.890Z,87.73
2023-03-27T04:23:10.817Z,87.62
2023-03-27T04:24:10.788Z,87.83
2023-03-27T04:25:10.808Z,87.83
2023-03-27T04:26:10.745Z,87.93
2023-03-27T04:27:10.678Z,87.62
2023-03-27T04:28:10.627Z,88.24
2023-03-27T04:29:10.602Z,88.04
2023-03-27T04:30:10.586Z,87.76
2023-03-27T04:31:10.702Z,88.18
2023-03-27T04:32:10.489Z,88.70
2023-03-27T04:33:10.438Z,88.08
2023-03-27T04:34:10.402Z,88.29
2023-03-27T04:35:10.458Z,88.49
2023-03-27T04:36:10.348Z,88.60
2023-03-27T04:37:10.406Z,88.29
2023-03-27T04:38:10.260Z,88.29
2023-03-27T04:39:10.219Z,88.29
2023-03-27T04:40:10.185Z,88.49
2023-03-27T04:41:10.202Z,88.49
2023-03-27T04:42:10.113Z,88.39
2023-03-27T04:43:10.070Z,88.70
2023-03-27T04:44:10.020Z,88.85
2023-03-27T04:45:09.999Z,89.06
2023-03-27T04:46:09.979Z,88.53
2023-03-27T04:47:10.032Z,89.06
2023-03-27T04:48:09.922Z,89.51
2023-03-27T04:49:09.830Z,90.00
2023-03-27T04:50:09.803Z,89.83
2023-03-27T04:51:09.754Z,90.10
2023-03-27T04:52:09.776Z,90.35
2023-03-27T04:53:09.682Z,90.31
2023-03-27T04:54:09.658Z,90.14
2023-03-27T04:55:09.600Z,89.93
2023-03-27T04:56:09.581Z,90.03
2023-03-27T04:57:09.544Z,90.03
2023-03-27T04:58:09.564Z,90.03
2023-03-27T04:59:09.456Z,90.25
2023-03-27T05:00:09.410Z,90.72
2023-03-27T05:01:09.407Z,90.62
2023-03-27T05:02:09.343Z,90.66
2023-03-27T05:03:09.403Z,90.77
2023-03-27T05:04:09.336Z,90.97
2023-03-27T05:05:09.230Z,90.77
2023-03-27T05:06:09.177Z,90.35
2023-03-27T05:07:09.149Z,91.29
2023-03-27T05:08:09.297Z,91.50
2023-03-27T05:09:09.086Z,91.75
2023-03-27T05:10:09.115Z,91.64
2023-03-27T05:11:08.993Z,92.27
2023-03-27T05:12:08.960Z,92.37
2023-03-27T05:13:08.917Z,91.85
2023-03-27T05:14:08.872Z,92.33
2023-03-27T05:15:08.839Z,92.02
2023-03-27T05:16:08.895Z,92.06
2023-03-27T05:17:08.760Z,92.12
2023-03-27T05:18:08.858Z,91.91
2023-03-27T05:19:08.687Z,92.02
2023-03-27T05:20:08.766Z,92.12
2023-03-27T05:21:08.693Z,92.12
2023-03-27T05:22:08.745Z,92.47
2023-03-27T05:23:08.573Z,92.33
2023-03-27T05:24:08.576Z,92.75
2023-03-27T05:25:08.545Z,93.06
2023-03-27T05:26:08.526Z,92.65
2023-03-27T05:27:08.477Z,92.54
2023-03-27T05:28:08.534Z,93.02
2023-03-27T05:29:08.386Z,93.27
2023-03-27T05:30:08.269Z,92.96
2023-03-27T05:31:08.292Z,92.96
2023-03-27T05:32:08.263Z,92.96
2023-03-27T05:33:08.255Z,92.85
2023-03-27T05:34:08.307Z,92.85
2023-03-27T05:35:08.160Z,92.85
2023-03-27T05:36:08.080Z,93.12
2023-03-27T05:37:08.091Z,93.12
2023-03-27T05:38:08.030Z,93.27
2023-03-27T05:39:07.993Z,93.23
2023-03-27T05:40:08.036Z,93.12
2023-03-27T05:41:07.913Z,92.81
2023-03-27T05:42:07.872Z,93.02
2023-03-27T05:43:07.853Z,93.02
2023-03-27T05:44:07.739Z,93.02
2023-03-27T05:45:07.782Z,93.33
2023-03-27T05:46:07.908Z,93.18
2023-03-27T05:47:07.689Z,92.97
2023-03-27T05:48:07.768Z,92.97
2023-03-27T05:49:07.601Z,92.87
2023-03-27T05:50:07.570Z,93.18
2023-03-27T05:51:07.537Z,92.77
2023-03-27T05:52:07.576Z,92.52
2023-03-27T05:53:07.448Z,92.72
2023-03-27T05:54:07.422Z,92.56
2023-03-27T05:55:07.385Z,92.46
2023-03-27T05:56:07.264Z,92.93
2023-03-27T05:57:07.380Z,92.83
2023-03-27T05:58:07.287Z,92.77
2023-03-27T05:59:07.243Z,92.62
2023-03-27T06:00:07.178Z,92.62
2023-03-27T06:01:07.153Z,92.52
2023-03-27T06:02:07.065Z,92.93
2023-03-27T06:03:07.248Z,92.52
2023-03-27T06:04:07.133Z,93.24
2023-03-27T06:05:06.944Z,93.24
2023-03-27T06:06:06.935Z,92.52
2023-03-27T06:07:06.923Z,92.47
2023-03-27T06:08:06.874Z,92.54
2023-03-27T06:09:06.799Z,92.12
2023-03-27T06:10:06.894Z,92.06
2023-03-27T06:11:06.729Z,92.02
2023-03-27T06:12:06.705Z,91.39
2023-03-27T06:13:06.636Z,91.50
2023-03-27T06:14:06.658Z,92.33
2023-03-27T06:15:06.643Z,92.22
2023-03-27T06:16:06.606Z,92.39
2023-03-27T06:17:06.481Z,91.91
2023-03-27T06:18:06.543Z,91.87
2023-03-27T06:19:06.485Z,91.87
2023-03-27T06:20:06.414Z,92.39
2023-03-27T06:21:06.434Z,91.97
2023-03-27T06:22:06.292Z,92.70
2023-03-27T06:23:06.346Z,92.39
2023-03-27T06:24:06.246Z,92.39
2023-03-27T06:25:06.229Z,93.12
2023-03-27T06:26:06.138Z,92.60
2023-03-27T06:27:06.164Z,93.33
2023-03-27T06:28:06.131Z,92.80
2023-03-27T06:29:08.423Z,93.23
2023-03-27T06:30:06.073Z,93.64
2023-03-27T06:31:06.032Z,93.43
2023-03-27T06:32:05.980Z,93.33
2023-03-27T06:33:06.060Z,93.54
2023-03-27T06:34:05.901Z,94.06
2023-03-27T06:35:05.841Z,93.54
2023-03-27T06:36:05.806Z,93.85
2023-03-27T06:37:05.804Z,93.85
2023-03-27T06:38:05.753Z,93.70
2023-03-27T06:39:05.777Z,93.39
2023-03-27T06:40:05.710Z,93.39
2023-03-27T06:41:05.677Z,93.07
2023-03-27T06:42:05.611Z,93.39
2023-03-27T06:43:05.512Z,93.18
2023-03-27T06:44:05.564Z,93.24
2023-03-27T06:45:05.690Z,93.24
2023-03-27T06:46:05.491Z,92.82
2023-03-27T06:47:05.478Z,92.72
2023-03-27T06:48:16.860Z,92.51
2023-03-27T06:49:05.369Z,92.61
2023-03-27T06:50:05.306Z,92.57
2023-03-27T06:51:05.410Z,91.22
2023-03-27T06:52:05.190Z,90.29
2023-03-27T06:53:10.056Z,90.39
2023-03-27T06:54:05.227Z,89.83
2023-03-27T06:55:05.147Z,88.65
2023-03-27T06:56:05.019Z,88.54
2023-03-27T06:57:05.132Z,88.30
2023-03-27T06:58:04.990Z,87.99
2023-03-27T06:59:04.964Z,88.30
2023-03-27T07:00:04.941Z,87.78
2023-03-27T07:01:04.920Z,87.37
2023-03-27T07:02:04.882Z,87.05
2023-03-27T07:03:04.988Z,86.08
2023-03-27T07:04:04.793Z,85.66
2023-03-27T07:05:05.609Z,85.21
2023-03-27T07:06:04.761Z,85.21
2023-03-27T07:07:04.671Z,85.58
2023-03-27T07:08:18.661Z,84.75
2023-03-27T07:09:04.725Z,84.28
2023-03-27T07:10:04.484Z,84.86
2023-03-27T07:12:04.647Z,83.31
2023-03-27T07:13:04.474Z,83.93
2023-03-27T07:14:04.357Z,83.72
2023-03-27T07:15:04.468Z,84.13
2023-03-27T07:16:04.288Z,83.37
2023-03-27T07:17:04.231Z,82.54
2023-03-27T07:18:04.277Z,82.44
2023-03-27T07:19:04.257Z,83.31
2023-03-27T07:20:04.196Z,83.00
2023-03-27T07:21:04.137Z,83.76
2023-03-27T07:22:04.107Z,83.59
2023-03-27T07:23:04.230Z,83.55
2023-03-27T07:24:04.053Z,84.42
2023-03-27T07:25:04.014Z,84.31
2023-03-27T07:26:03.960Z,84.63
2023-03-27T07:27:03.882Z,84.42
2023-03-27T07:28:06.286Z,85.25
2023-03-27T07:29:03.926Z,85.14
2023-03-27T07:30:03.809Z,85.14
2023-03-27T07:31:04.015Z,84.83
2023-03-27T07:32:07.197Z,85.46
2023-03-27T07:33:03.740Z,85.66
2023-03-27T07:34:03.740Z,85.14
2023-03-27T07:35:03.638Z,84.59
2023-03-27T07:36:03.617Z,84.07
2023-03-27T07:37:03.563Z,83.76
2023-03-27T07:38:03.524Z,83.76
2023-03-27T07:39:03.515Z,83.62
2023-03-27T07:40:03.456Z,82.48
2023-03-27T07:41:03.403Z,82.44
2023-03-27T07:42:03.480Z,82.34
2023-03-27T07:43:03.353Z,82.13
2023-03-27T07:44:03.290Z,82.19
2023-03-27T07:45:04.529Z,81.70
2023-03-27T07:46:03.339Z,81.05
2023-03-27T07:47:03.301Z,79.80
2023-03-27T07:48:03.195Z,78.53
2023-03-27T07:49:03.139Z,77.70
2023-03-27T07:50:03.111Z,77.91
2023-03-27T07:51:13.330Z,76.87
2023-03-27T07:52:02.989Z,76.81
2023-03-27T07:53:02.995Z,77.98
2023-03-27T07:54:03.042Z,78.64
2023-03-27T07:55:02.919Z,78.85
2023-03-27T07:56:02.859Z,79.09
2023-03-27T07:57:02.892Z,79.09
2023-03-27T07:58:03.676Z,79.19
2023-03-27T07:59:02.872Z,79.81
2023-03-27T08:00:02.851Z,79.81
2023-03-27T08:01:02.936Z,79.85
2023-03-27T08:02:02.653Z,79.64
2023-03-27T08:03:02.674Z,79.68
2023-03-27T08:04:02.672Z,80.82
2023-03-27T08:05:02.837Z,80.16
2023-03-27T08:06:02.607Z,79.64
2023-03-27T08:07:02.484Z,79.47
2023-03-27T08:08:02.447Z,78.53
2023-03-27T08:09:03.055Z,78.53
2023-03-27T08:10:02.328Z,77.39
2023-03-27T08:11:02.275Z,77.56
2023-03-27T08:12:02.434Z,77.33
2023-03-27T08:13:02.272Z,76.95
2023-03-27T08:14:02.250Z,77.43
2023-03-27T08:15:02.223Z,77.01
2023-03-27T08:16:02.084Z,76.81
2023-03-27T08:17:14.687Z,77.53
2023-03-27T08:18:02.098Z,77.84
2023-03-27T08:19:01.972Z,75.88
2023-03-27T08:20:02.052Z,75.32
2023-03-27T08:21:01.944Z,75.46
2023-03-27T08:22:01.864Z,75.05
2023-03-27T08:23:01.924Z,76.39
2023-03-27T08:24:01.991Z,75.81
2023-03-27T08:25:01.927Z,75.70
2023-03-27T08:26:01.827Z,75.40
2023-03-27T08:27:01.748Z,76.05
2023-03-27T08:28:01.696Z,76.05
2023-03-27T08:29:01.712Z,75.84
2023-03-27T08:30:01.772Z,76.19
2023-03-27T08:31:02.531Z,76.91
2023-03-27T08:32:01.587Z,77.39
2023-03-27T08:33:01.616Z,76.98
2023-03-27T08:34:01.481Z,75.70
2023-03-27T08:35:01.504Z,74.84
2023-03-27T08:36:01.577Z,74.81
2023-03-27T08:37:01.337Z,72.61
2023-03-27T08:38:01.320Z,72.95
2023-03-27T08:39:01.254Z,72.12
2023-03-27T08:40:01.259Z,72.95
2023-03-27T08:41:01.177Z,73.57
2023-03-27T08:42:01.220Z,73.67
2023-03-27T08:43:01.112Z,73.57
2023-03-27T08:44:01.075Z,73.47
2023-03-27T08:45:01.034Z,73.77
2023-03-27T08:46:01.068Z,73.39
2023-03-27T08:47:00.968Z,74.53
2023-03-27T08:48:01.618Z,75.15
2023-03-27T08:49:00.899Z,75.19
2023-03-27T08:50:00.870Z,74.98
2023-03-27T08:51:00.821Z,75.36
2023-03-27T08:52:00.791Z,72.98
2023-03-27T08:53:00.754Z,72.95
2023-03-27T08:54:00.768Z,72.81
2023-03-27T08:55:00.714Z,72.81
2023-03-27T08:56:00.646Z,72.40
2023-03-27T08:57:00.653Z,72.26
2023-03-27T08:58:00.599Z,72.16
2023-03-27T08:59:00.598Z,71.64
2023-03-27T09:00:00.504Z,72.12
2023-03-27T09:01:00.470Z,73.47
2023-03-27T09:02:00.460Z,73.54
2023-03-27T09:03:00.462Z,72.09
2023-03-27T09:04:00.437Z,71.67
2023-03-27T09:05:00.380Z,71.71
2023-03-27T09:06:00.299Z,72.85
2023-03-27T09:07:00.253Z,73.57
2023-03-27T09:08:00.222Z,73.57
2023-03-27T09:09:00.182Z,73.64
2023-03-27T09:10:00.187Z,73.12
2023-03-27T09:11:00.342Z,72.74
2023-03-27T09:12:00.104Z,73.71
2023-03-27T09:13:00.109Z,72.67
2023-03-27T09:14:00.006Z,72.98
2023-03-27T09:14:59.974Z,73.77
2023-03-27T09:16:00.175Z,73.02
2023-03-27T09:16:59.958Z,72.91
2023-03-27T09:17:59.887Z,72.74
2023-03-27T09:18:59.865Z,72.22
2023-03-27T09:19:59.814Z,72.85
2023-03-27T09:20:59.755Z,70.37
2023-03-27T09:21:59.734Z,70.85
2023-03-27T09:22:59.734Z,69.99
2023-03-27T09:23:59.681Z,69.24
2023-03-27T09:24:59.770Z,69.44
2023-03-27T09:25:59.781Z,69.44
2023-03-27T09:27:07.038Z,68.82
2023-03-27T09:27:59.605Z,69.78
2023-03-27T09:28:59.477Z,70.40
2023-03-27T09:30:05.389Z,69.48
2023-03-27T09:30:59.441Z,69.03
2023-03-27T09:31:59.425Z,68.24
2023-03-27T09:32:59.432Z,69.48
2023-03-27T09:33:59.297Z,69.85
2023-03-27T09:34:59.267Z,69.13
2023-03-27T09:35:59.586Z,68.59
2023-03-27T09:36:59.199Z,67.27
2023-03-27T09:37:59.158Z,67.38
2023-03-27T09:38:59.166Z,68.00
2023-03-27T09:39:59.097Z,68.21
2023-03-27T09:40:59.093Z,68.13
2023-03-27T09:41:59.007Z,67.13
2023-03-27T09:42:58.981Z,66.61
2023-03-27T09:43:58.998Z,67.44
2023-03-27T09:44:58.910Z,67.13
2023-03-27T09:45:58.999Z,67.10
2023-03-27T09:46:58.885Z,67.17
2023-03-27T09:47:58.840Z,66.45
2023-03-27T09:48:58.787Z,67.38
2023-03-27T09:49:58.789Z,67.07
2023-03-27T09:50:58.904Z,66.97
2023-03-27T09:51:58.652Z,66.52
2023-03-27T09:52:58.716Z,66.49
2023-03-27T09:53:58.594Z,65.98
2023-03-27T09:54:58.556Z,66.70
2023-03-27T09:55:59.032Z,66.76
2023-03-27T09:56:58.525Z,66.55
2023-03-27T09:57:58.509Z,66.63
2023-03-27T09:58:58.434Z,66.42
2023-03-27T09:59:58.399Z,66.70
2023-03-27T10:00:58.600Z,66.67
2023-03-27T10:01:58.315Z,66.80
2023-03-27T10:02:58.363Z,66.63
2023-03-27T10:03:58.316Z,66.94
2023-03-27T10:04:58.206Z,66.63
2023-03-27T10:05:58.174Z,65.83
2023-03-27T10:06:58.140Z,64.83
2023-03-27T10:07:58.098Z,65.34
2023-03-27T10:08:58.120Z,64.76
2023-03-27T10:09:58.036Z,64.73
2023-03-27T10:10:58.192Z,64.76
2023-03-27T10:11:57.972Z,64.65
2023-03-27T10:12:57.931Z,64.76
2023-03-27T10:13:57.895Z,64.76
2023-03-27T10:14:58.086Z,64.34
2023-03-27T10:15:57.825Z,65.79
2023-03-27T10:16:57.826Z,66.07
2023-03-27T10:17:57.826Z,66.17
2023-03-27T10:18:57.716Z,65.52
2023-03-27T10:19:57.672Z,64.46
2023-03-27T10:20:57.824Z,64.67
2023-03-27T10:21:57.619Z,64.36
2023-03-27T10:22:57.573Z,64.46
2023-03-27T10:23:57.539Z,64.67
2023-03-27T10:24:57.531Z,65.15
2023-03-27T10:25:57.466Z,64.64
2023-03-27T10:26:57.501Z,64.81
2023-03-27T10:27:57.400Z,63.54
2023-03-27T10:28:57.366Z,62.38
2023-03-27T10:29:57.323Z,61.53
2023-03-27T10:30:57.414Z,61.02
2023-03-27T10:31:57.296Z,61.25
2023-03-27T10:32:57.330Z,61.15
2023-03-27T10:33:57.197Z,59.70
2023-03-27T10:34:57.160Z,58.34
2023-03-27T10:35:57.160Z,58.03
2023-03-27T10:36:57.076Z,59.47
2023-03-27T10:37:57.068Z,60.77
2023-03-27T10:38:57.127Z,59.53
2023-03-27T10:39:56.975Z,60.49
2023-03-27T10:40:57.162Z,60.69
2023-03-27T10:41:56.918Z,60.82
2023-03-27T10:42:56.886Z,61.70
2023-03-27T10:43:56.841Z,63.18
2023-03-27T10:44:56.869Z,63.82
2023-03-27T10:45:56.794Z,64.96
2023-03-27T10:46:56.774Z,65.34
2023-03-27T10:47:56.911Z,65.79
2023-03-27T10:48:56.665Z,65.55
2023-03-27T10:49:56.636Z,65.97
2023-03-27T10:50:56.787Z,65.97
2023-03-27T10:51:56.556Z,66.10
2023-03-27T10:52:56.527Z,66.27
2023-03-27T10:53:56.571Z,66.51
2023-03-27T10:54:56.460Z,66.79
2023-03-27T10:55:56.649Z,66.55
2023-03-27T10:56:56.460Z,66.55
2023-03-27T10:57:56.348Z,66.45
2023-03-27T10:58:56.310Z,66.86
2023-03-27T10:59:56.404Z,67.03
2023-03-27T11:00:56.428Z,66.73
2023-03-27T11:01:56.252Z,65.39
2023-03-27T11:02:56.240Z,63.01
2023-03-27T11:03:56.198Z,63.71
2023-03-27T11:04:56.100Z,61.61
2023-03-27T11:05:56.064Z,60.66
2023-03-27T11:06:56.037Z,58.50
2023-03-27T11:07:56.008Z,57.68
2023-03-27T11:08:56.051Z,57.37
2023-03-27T11:09:55.918Z,57.06
2023-03-27T11:10:56.099Z,57.26
2023-03-27T11:11:55.846Z,56.62
2023-03-27T11:12:55.821Z,56.59
2023-03-27T11:13:55.776Z,57.42
2023-03-27T11:14:55.796Z,58.70
2023-03-27T11:15:55.725Z,59.53
2023-03-27T11:16:55.702Z,60.69
2023-03-27T11:17:55.700Z,61.98
2023-03-27T11:18:55.615Z,62.12
2023-03-27T11:19:55.569Z,63.84
2023-03-27T11:20:55.759Z,63.81
2023-03-27T11:21:55.492Z,65.56
2023-03-27T11:22:55.501Z,67.18
2023-03-27T11:23:55.467Z,65.74
2023-03-27T11:24:55.399Z,67.90
2023-03-27T11:25:55.350Z,66.97
2023-03-27T11:26:55.425Z,66.67
2023-03-27T11:27:55.284Z,65.99
2023-03-27T11:28:55.256Z,63.31
2023-03-27T11:29:55.240Z,61.80
2023-03-27T11:30:55.515Z,61.35
2023-03-27T11:31:55.207Z,59.99
2023-03-27T11:32:55.224Z,59.89
2023-03-27T11:33:55.086Z,59.06
2023-03-27T11:34:55.057Z,58.62
2023-03-27T11:35:55.061Z,59.93
2023-03-27T11:36:54.979Z,58.39
2023-03-27T11:37:54.988Z,57.39
2023-03-27T11:38:54.909Z,58.21
2023-03-27T11:39:54.910Z,57.16
2023-03-27T11:40:55.028Z,56.57
2023-03-27T11:41:54.802Z,58.16
2023-03-27T11:42:54.770Z,58.45
2023-03-27T11:43:54.806Z,56.93
2023-03-27T11:44:54.706Z,58.60
2023-03-27T11:45:54.691Z,59.56
2023-03-27T11:46:54.633Z,60.66
2023-03-27T11:47:54.703Z,60.87
2023-03-27T11:48:54.563Z,61.61
2023-03-27T11:49:54.537Z,62.57
2023-03-27T11:50:54.700Z,63.12
2023-03-27T11:51:54.468Z,64.46
2023-03-27T11:52:54.484Z,64.46
2023-03-27T11:53:54.404Z,63.95
2023-03-27T11:54:54.364Z,64.87
2023-03-27T11:55:54.321Z,66.83
2023-03-27T11:56:54.472Z,64.53
2023-03-27T11:57:54.307Z,65.33
2023-03-27T11:58:54.225Z,62.75
2023-03-27T11:59:54.189Z,62.99
2023-03-27T12:00:54.527Z,63.60
2023-03-27T12:01:54.147Z,63.99
2023-03-27T12:02:54.125Z,62.21
2023-03-27T12:03:54.250Z,62.31
2023-03-27T12:04:54.009Z,62.24
2023-03-27T12:05:53.981Z,62.41
2023-03-27T12:06:53.964Z,62.82
2023-03-27T12:07:53.909Z,61.59
2023-03-27T12:08:53.875Z,61.35
2023-03-27T12:09:53.884Z,61.05
2023-03-27T12:10:53.802Z,60.50
2023-03-27T12:11:53.766Z,60.17
2023-03-27T12:12:53.741Z,58.73
2023-03-27T12:14:00.896Z,58.73
2023-03-27T12:14:53.667Z,58.31
2023-03-27T12:15:53.689Z,57.80
2023-03-27T12:16:53.607Z,56.77
2023-03-27T12:17:53.593Z,56.90
2023-03-27T12:19:01.960Z,57.42
2023-03-27T12:19:53.490Z,57.93
2023-03-27T12:20:53.898Z,58.45
2023-03-27T12:21:53.486Z,57.82
2023-03-27T12:22:53.390Z,58.89
2023-03-27T12:23:53.344Z,59.22
2023-03-27T12:24:59.424Z,58.98
2023-03-27T12:25:53.286Z,60.22
2023-03-27T12:26:53.254Z,57.86
2023-03-27T12:27:53.626Z,57.98
2023-03-27T12:28:53.296Z,59.33
2023-03-27T12:29:53.213Z,58.91
2023-03-27T12:30:53.121Z,60.25
2023-03-27T12:31:53.224Z,60.77
2023-03-27T12:32:54.839Z,62.00
2023-03-27T12:33:54.090Z,64.50
2023-03-27T12:34:53.003Z,66.56
2023-03-27T12:35:53.197Z,69.51
2023-03-27T12:36:53.116Z,73.02
2023-03-27T12:37:52.870Z,75.22
2023-03-27T12:38:52.858Z,77.80
2023-03-27T12:39:52.944Z,78.94
2023-03-27T12:40:52.762Z,79.28
2023-03-27T12:41:52.719Z,80.15
2023-03-27T12:42:52.721Z,81.70
2023-03-27T12:43:52.662Z,83.04
2023-03-27T12:44:52.631Z,83.25
2023-03-27T12:45:53.704Z,83.76
2023-03-27T12:46:52.615Z,84.28
2023-03-27T12:47:52.543Z,84.07
2023-03-27T12:48:52.492Z,83.10
2023-03-27T12:49:52.489Z,82.45
2023-03-27T12:50:52.410Z,78.73
2023-03-27T12:51:52.413Z,79.11
2023-03-27T12:52:52.354Z,78.08